createdAt,value
2023-08-10T00:00:15.732Z,1003.41
2023-08-10T00:01:15.824Z,1003.52
2023-08-10T00:02:16.481Z,1003.42
2023-08-10T00:03:15.732Z,1003.43
2023-08-10T00:04:16.445Z,1003.45
2023-08-10T00:05:15.666Z,1003.42
2023-08-10T00:06:15.654Z,1003.45
2023-08-10T00:07:15.643Z,1003.42
2023-08-10T00:08:15.632Z,1003.39
2023-08-10T00:09:15.627Z,1003.42
2023-08-10T00:10:15.617Z,1003.39
2023-08-10T00:11:15.639Z,1003.45
2023-08-10T00:12:16.458Z,1003.46
2023-08-10T00:13:15.584Z,1003.49
2023-08-10T00:14:16.212Z,1003.48
2023-08-10T00:15:15.652Z,1003.47
2023-08-10T00:16:16.377Z,1003.43
2023-08-10T00:17:16.315Z,1003.42
2023-08-10T00:18:16.299Z,1003.51
2023-08-10T00:19:15.617Z,1003.45
2023-08-10T00:20:18.133Z,1003.47
2023-08-10T00:21:15.593Z,1003.52
2023-08-10T00:22:15.513Z,1003.47
2023-08-10T00:23:15.572Z,1003.44
2023-08-10T00:24:15.529Z,1003.51
2023-08-10T00:25:15.545Z,1003.50
2023-08-10T00:26:15.557Z,1003.44
2023-08-10T00:27:16.151Z,1003.46
2023-08-10T00:28:15.651Z,1003.46
2023-08-10T00:29:15.583Z,1003.47
2023-08-10T00:30:16.369Z,1003.49
2023-08-10T00:31:15.448Z,1003.50
2023-08-10T00:32:15.510Z,1003.48
2023-08-10T00:33:28.153Z,1003.52
2023-08-10T00:34:18.138Z,1003.54
2023-08-10T00:35:16.266Z,1003.45
2023-08-10T00:36:15.406Z,1003.47
2023-08-10T00:37:15.445Z,1003.49
2023-08-10T00:38:15.389Z,1003.51
2023-08-10T00:39:16.333Z,1003.49
2023-08-10T00:40:17.297Z,1003.50
2023-08-10T00:41:15.370Z,1003.51
2023-08-10T00:42:17.139Z,1003.47
2023-08-10T00:43:17.137Z,1003.49
2023-08-10T00:44:16.320Z,1003.51
2023-08-10T00:45:15.348Z,1003.53
2023-08-10T00:46:15.386Z,1003.46
2023-08-10T00:47:37.246Z,1003.44
2023-08-10T00:48:16.318Z,1003.44
2023-08-10T00:49:15.358Z,1003.53
2023-08-10T00:50:15.538Z,1003.53
2023-08-10T00:51:15.352Z,1003.55
2023-08-10T00:52:16.866Z,1003.56
2023-08-10T00:53:16.146Z,1003.56
2023-08-10T00:54:15.252Z,1003.62
2023-08-10T00:55:15.267Z,1003.59
2023-08-10T00:56:15.287Z,1003.63
2023-08-10T00:57:17.325Z,1003.65
2023-08-10T00:58:15.992Z,1003.62
2023-08-10T00:59:15.341Z,1003.64
2023-08-10T01:00:15.318Z,1003.64
2023-08-10T01:01:15.278Z,1003.63
2023-08-10T01:02:15.303Z,1003.62
2023-08-10T01:03:16.007Z,1003.67
2023-08-10T01:04:15.846Z,1003.65
2023-08-10T01:05:15.223Z,1003.68
2023-08-10T01:06:16.234Z,1003.64
2023-08-10T01:07:15.659Z,1003.66
2023-08-10T01:08:16.139Z,1003.65
2023-08-10T01:09:15.315Z,1003.63
2023-08-10T01:10:15.741Z,1003.56
2023-08-10T01:11:16.001Z,1003.56
2023-08-10T01:12:15.901Z,1003.59
2023-08-10T01:13:15.939Z,1003.64
2023-08-10T01:14:15.148Z,1003.66
2023-08-10T01:15:15.179Z,1003.74
2023-08-10T01:16:15.234Z,1003.73
2023-08-10T01:17:15.249Z,1003.73
2023-08-10T01:18:15.177Z,1003.72
2023-08-10T01:19:16.735Z,1003.74
2023-08-10T01:20:15.087Z,1003.78
2023-08-10T01:21:15.127Z,1003.76
2023-08-10T01:22:15.850Z,1003.73
2023-08-10T01:23:15.127Z,1003.69
2023-08-10T01:24:15.641Z,1003.70
2023-08-10T01:25:16.582Z,1003.71
2023-08-10T01:26:16.001Z,1003.77
2023-08-10T01:27:16.681Z,1003.69
2023-08-10T01:28:16.400Z,1003.74
2023-08-10T01:29:15.072Z,1003.73
2023-08-10T01:30:21.670Z,1003.75
2023-08-10T01:31:16.683Z,1003.72
2023-08-10T01:32:15.837Z,1003.73
2023-08-10T01:33:14.986Z,1003.73
2023-08-10T01:34:16.432Z,1003.73
2023-08-10T01:35:15.734Z,1003.75
2023-08-10T01:36:15.056Z,1003.73
2023-08-10T01:37:14.965Z,1003.69
2023-08-10T01:38:15.650Z,1003.73
2023-08-10T01:39:15.222Z,1003.74
2023-08-10T01:40:15.189Z,1003.72
2023-08-10T01:41:15.652Z,1003.73
2023-08-10T01:42:14.898Z,1003.77
2023-08-10T01:43:16.307Z,1003.79
2023-08-10T01:44:14.910Z,1003.74
2023-08-10T01:45:15.180Z,1003.79
2023-08-10T01:46:17.086Z,1003.75
2023-08-10T01:47:15.944Z,1003.70
2023-08-10T01:48:15.151Z,1003.78
2023-08-10T01:49:14.914Z,1003.67
2023-08-10T01:50:14.880Z,1003.72
2023-08-10T01:51:14.936Z,1003.75
2023-08-10T01:52:16.653Z,1003.74
2023-08-10T01:53:15.107Z,1003.79
2023-08-10T01:54:14.940Z,1003.77
2023-08-10T01:55:16.079Z,1003.77
2023-08-10T01:56:15.184Z,1003.81
2023-08-10T01:57:14.838Z,1003.77
2023-08-10T01:58:14.767Z,1003.77
2023-08-10T01:59:15.754Z,1003.73
2023-08-10T02:00:14.800Z,1003.77
2023-08-10T02:01:14.867Z,1003.76
2023-08-10T02:02:14.800Z,1003.71
2023-08-10T02:03:14.779Z,1003.69
2023-08-10T02:04:15.717Z,1003.72
2023-08-10T02:05:15.654Z,1003.74
2023-08-10T02:06:15.918Z,1003.78
2023-08-10T02:07:15.744Z,1003.78
2023-08-10T02:08:15.417Z,1003.81
2023-08-10T02:09:16.411Z,1003.79
2023-08-10T02:10:14.726Z,1003.83
2023-08-10T02:11:14.706Z,1003.80
2023-08-10T02:12:14.721Z,1003.82
2023-08-10T02:13:34.296Z,1003.77
2023-08-10T02:14:17.233Z,1003.87
2023-08-10T02:15:14.628Z,1003.78
2023-08-10T02:16:14.664Z,1003.84
2023-08-10T02:17:15.247Z,1003.80
2023-08-10T02:18:14.601Z,1003.80
2023-08-10T02:19:15.649Z,1003.89
2023-08-10T02:20:15.486Z,1003.83
2023-08-10T02:21:15.189Z,1003.75
2023-08-10T02:22:14.642Z,1003.77
2023-08-10T02:23:47.806Z,1003.81
2023-08-10T02:24:14.574Z,1003.78
2023-08-10T02:25:14.560Z,1003.85
2023-08-10T02:26:15.443Z,1003.87
2023-08-10T02:27:15.708Z,1003.79
2023-08-10T02:28:16.454Z,1003.81
2023-08-10T02:29:14.763Z,1003.75
2023-08-10T02:30:14.633Z,1003.72
2023-08-10T02:31:14.675Z,1003.77
2023-08-10T02:32:14.702Z,1003.75
2023-08-10T02:33:14.577Z,1003.71
2023-08-10T02:34:16.595Z,1003.70
2023-08-10T02:35:15.431Z,1003.72
2023-08-10T02:36:15.202Z,1003.74
2023-08-10T02:37:16.201Z,1003.69
2023-08-10T02:38:14.661Z,1003.78
2023-08-10T02:39:15.702Z,1003.77
2023-08-10T02:40:14.489Z,1003.79
2023-08-10T02:41:15.707Z,1003.79
2023-08-10T02:42:14.616Z,1003.88
2023-08-10T02:43:17.697Z,1003.79
2023-08-10T02:44:14.568Z,1003.82
2023-08-10T02:45:15.611Z,1003.76
2023-08-10T02:46:15.720Z,1003.87
2023-08-10T02:47:15.321Z,1003.84
2023-08-10T02:48:14.651Z,1003.88
2023-08-10T02:49:15.522Z,1003.87
2023-08-10T02:50:15.266Z,1003.90
2023-08-10T02:51:15.525Z,1003.90
2023-08-10T02:52:14.464Z,1003.84
2023-08-10T02:53:14.626Z,1003.81
2023-08-10T02:54:15.360Z,1003.84
2023-08-10T02:55:15.073Z,1003.83
2023-08-10T02:56:15.714Z,1003.84
2023-08-10T02:57:14.533Z,1003.86
2023-08-10T03:00:13.480Z,1003.91
2023-08-10T03:01:13.422Z,1003.84
2023-08-10T03:02:14.659Z,1003.83
2023-08-10T03:03:14.595Z,1003.86
2023-08-10T03:04:14.679Z,1003.80
2023-08-10T03:05:14.569Z,1003.88
2023-08-10T03:06:14.584Z,1003.89
2023-08-10T03:07:48.121Z,1003.87
2023-08-10T03:08:14.552Z,1003.83
2023-08-10T03:09:14.550Z,1003.87
2023-08-10T03:10:14.542Z,1003.85
2023-08-10T03:11:14.539Z,1003.92
2023-08-10T03:12:14.526Z,1003.87
2023-08-10T03:13:14.529Z,1003.91
2023-08-10T03:14:14.513Z,1003.89
2023-08-10T03:15:14.531Z,1003.93
2023-08-10T03:16:14.543Z,1003.95
2023-08-10T03:17:14.479Z,1004.00
2023-08-10T03:18:14.526Z,1003.97
2023-08-10T03:19:15.217Z,1003.90
2023-08-10T03:20:14.590Z,1003.94
2023-08-10T03:21:14.443Z,1003.91
2023-08-10T03:22:15.666Z,1003.93
2023-08-10T03:23:14.432Z,1003.91
2023-08-10T03:24:14.441Z,1003.92
2023-08-10T03:25:14.479Z,1003.94
2023-08-10T03:26:14.499Z,1003.93
2023-08-10T03:27:14.496Z,1003.90
2023-08-10T03:28:14.458Z,1003.91
2023-08-10T03:29:14.980Z,1003.88
2023-08-10T03:30:14.441Z,1003.94
2023-08-10T03:31:14.481Z,1003.92
2023-08-10T03:32:14.616Z,1003.94
2023-08-10T03:33:14.416Z,1003.96
2023-08-10T03:34:14.358Z,1003.98
2023-08-10T03:35:14.465Z,1004.00
2023-08-10T03:36:14.347Z,1004.04
2023-08-10T03:37:14.327Z,1004.09
2023-08-10T03:38:14.381Z,1004.04
2023-08-10T03:39:14.309Z,1004.04
2023-08-10T03:40:14.372Z,1004.07
2023-08-10T03:41:14.334Z,1004.02
2023-08-10T03:42:14.292Z,1004.07
2023-08-10T03:43:14.345Z,1004.03
2023-08-10T03:44:14.292Z,1004.04
2023-08-10T03:45:14.270Z,1004.10
2023-08-10T03:46:14.326Z,1004.04
2023-08-10T03:47:14.297Z,1004.06
2023-08-10T04:03:50.242Z,1004.31
2023-08-10T04:04:50.216Z,1004.20
2023-08-10T04:05:50.179Z,1004.25
2023-08-10T04:06:52.718Z,1004.24
2023-08-10T04:07:51.327Z,1004.27
2023-08-10T04:08:51.336Z,1004.27
2023-08-10T04:09:51.338Z,1004.31
2023-08-10T04:10:51.358Z,1004.30
2023-08-10T04:11:51.374Z,1004.23
2023-08-10T04:12:51.371Z,1004.26
2023-08-10T04:13:51.355Z,1004.27
2023-08-10T04:14:51.264Z,1004.26
2023-08-10T04:15:51.280Z,1004.25
2023-08-10T04:16:51.334Z,1004.24
2023-08-10T04:17:51.299Z,1004.22
2023-08-10T04:18:51.255Z,1004.27
2023-08-10T04:19:51.453Z,1004.19
2023-08-10T04:20:51.283Z,1004.23
2023-08-10T04:21:51.249Z,1004.25
2023-08-10T04:22:51.229Z,1004.22
2023-08-10T04:23:51.237Z,1004.17
2023-08-10T04:24:51.183Z,1004.22
2023-08-10T04:25:51.230Z,1004.18
2023-08-10T04:26:51.731Z,1004.22
2023-08-10T04:28:25.361Z,1004.24
2023-08-10T04:28:51.159Z,1004.23
2023-08-10T04:29:51.217Z,1004.30
2023-08-10T04:30:51.215Z,1004.27
2023-08-10T04:31:51.169Z,1004.29
2023-08-10T04:32:51.210Z,1004.28
2023-08-10T04:33:52.087Z,1004.25
2023-08-10T04:34:51.239Z,1004.15
2023-08-10T04:35:51.176Z,1004.13
2023-08-10T04:36:51.200Z,1004.10
2023-08-10T04:37:51.226Z,1004.05
2023-08-10T04:38:52.005Z,1004.06
2023-08-10T04:39:51.117Z,1003.93
2023-08-10T04:40:51.602Z,1003.94
2023-08-10T04:41:51.147Z,1003.90
2023-08-10T04:42:51.043Z,1003.91
2023-08-10T04:43:51.129Z,1003.88
2023-08-10T04:44:51.082Z,1003.85
2023-08-10T04:45:51.074Z,1003.80
2023-08-10T04:46:51.073Z,1003.73
2023-08-10T04:47:51.085Z,1003.68
2023-08-10T04:48:51.065Z,1003.63
2023-08-10T04:49:51.309Z,1003.61
2023-08-10T04:50:51.005Z,1003.61
2023-08-10T04:51:51.751Z,1003.58
2023-08-10T04:52:51.027Z,1003.61
2023-08-10T04:53:51.044Z,1003.55
2023-08-10T04:54:51.965Z,1003.54
2023-08-10T04:55:51.047Z,1003.50
2023-08-10T04:56:50.999Z,1003.45
2023-08-10T04:57:51.557Z,1003.49
2023-08-10T04:58:50.983Z,1003.43
2023-08-10T04:59:51.527Z,1003.45
2023-08-10T05:00:51.004Z,1003.41
2023-08-10T05:01:51.036Z,1003.38
2023-08-10T05:02:52.238Z,1003.34
2023-08-10T05:03:52.950Z,1003.35
2023-08-10T05:04:51.913Z,1003.29
2023-08-10T05:05:51.068Z,1003.25
2023-08-10T05:06:51.081Z,1003.28
2023-08-10T05:07:50.933Z,1003.24
2023-08-10T05:08:50.909Z,1003.26
2023-08-10T05:09:56.230Z,1003.23
2023-08-10T05:10:52.913Z,1003.19
2023-08-10T05:11:50.836Z,1003.19
2023-08-10T05:12:50.843Z,1003.22
2023-08-10T05:13:50.867Z,1003.15
2023-08-10T05:14:50.847Z,1003.21
2023-08-10T05:15:50.927Z,1003.18
2023-08-10T05:16:50.830Z,1003.16
2023-08-10T05:17:50.912Z,1003.15
2023-08-10T05:18:51.751Z,1003.13
2023-08-10T05:19:50.785Z,1003.16
2023-08-10T05:20:50.824Z,1003.14
2023-08-10T05:21:50.788Z,1003.16
2023-08-10T05:22:50.885Z,1003.13
2023-08-10T05:23:51.080Z,1003.02
2023-08-10T05:24:50.848Z,1003.04
2023-08-10T05:25:51.297Z,1003.08
2023-08-10T05:26:51.334Z,1003.03
2023-08-10T05:27:50.919Z,1003.06
2023-08-10T05:28:50.808Z,1003.07
2023-08-10T05:29:51.006Z,1003.06
2023-08-10T05:30:50.730Z,1003.09
2023-08-10T05:31:51.548Z,1003.21
2023-08-10T05:32:50.784Z,1003.21
2023-08-10T05:33:50.716Z,1003.20
2023-08-10T05:34:50.690Z,1003.18
2023-08-10T05:35:50.746Z,1003.21
2023-08-10T05:36:51.372Z,1003.18
2023-08-10T05:37:51.635Z,1003.22
2023-08-10T05:38:50.690Z,1003.29
2023-08-10T05:39:51.269Z,1003.35
2023-08-10T05:40:51.144Z,1003.48
2023-08-10T05:41:53.591Z,1003.34
2023-08-10T05:42:50.619Z,1003.47
2023-08-10T05:43:50.614Z,1003.53
2023-08-10T05:44:50.660Z,1003.57
2023-08-10T05:45:50.720Z,1003.61
2023-08-10T05:46:50.609Z,1003.65
2023-08-10T05:47:50.603Z,1003.71
2023-08-10T05:48:51.055Z,1003.72
2023-08-10T05:49:51.344Z,1003.69
2023-08-10T05:50:50.751Z,1003.68
2023-08-10T05:51:50.659Z,1003.68
2023-08-10T05:52:50.567Z,1003.67
2023-08-10T05:53:50.573Z,1003.65
2023-08-10T05:54:50.664Z,1003.63
2023-08-10T05:55:50.603Z,1003.67
2023-08-10T05:56:50.508Z,1003.72
2023-08-10T05:57:51.548Z,1003.74
2023-08-10T05:58:50.555Z,1003.74
2023-08-10T05:59:50.727Z,1003.84
2023-08-10T06:00:50.536Z,1003.77
2023-08-10T06:01:50.495Z,1003.54
2023-08-10T06:02:50.516Z,1003.64
2023-08-10T06:03:50.529Z,1003.66
2023-08-10T06:04:50.547Z,1003.66
2023-08-10T06:05:51.051Z,1003.58
2023-08-10T06:06:50.431Z,1003.43
2023-08-10T06:07:50.812Z,1003.37
2023-08-10T06:08:50.437Z,1003.39
2023-08-10T06:09:51.430Z,1003.29
2023-08-10T06:10:50.416Z,1003.26
2023-08-10T06:11:50.422Z,1003.13
2023-08-10T06:12:50.408Z,1003.12
2023-08-10T06:13:51.136Z,1003.05
2023-08-10T06:14:50.772Z,1002.96
2023-08-10T06:15:50.431Z,1002.94
2023-08-10T06:16:50.435Z,1002.90
2023-08-10T06:17:50.502Z,1002.82
2023-08-10T06:18:50.356Z,1002.83
2023-08-10T06:19:50.628Z,1002.80
2023-08-10T06:20:50.304Z,1002.74
2023-08-10T06:21:50.390Z,1002.74
2023-08-10T06:22:51.269Z,1002.70
2023-08-10T06:23:50.329Z,1002.67
2023-08-10T06:24:50.341Z,1002.67
2023-08-10T06:25:50.290Z,1002.71
2023-08-10T06:26:50.777Z,1002.74
2023-08-10T06:27:51.146Z,1002.72
2023-08-10T06:28:51.289Z,1002.70
2023-08-10T06:29:50.400Z,1002.76
2023-08-10T06:30:50.989Z,1002.70
2023-08-10T06:31:51.371Z,1002.72
2023-08-10T06:32:50.293Z,1002.73
2023-08-10T06:33:50.253Z,1002.68
2023-08-10T06:34:51.986Z,1002.76
2023-08-10T06:35:50.754Z,1002.68
2023-08-10T06:36:50.246Z,1002.67
2023-08-10T06:37:50.686Z,1002.71
2023-08-10T06:38:50.792Z,1002.67
2023-08-10T06:39:50.238Z,1002.75
2023-08-10T06:41:22.504Z,1002.70
2023-08-10T06:41:50.169Z,1002.66
2023-08-10T06:42:50.180Z,1002.70
2023-08-10T06:43:50.235Z,1002.75
2023-08-10T06:44:50.189Z,1002.69
2023-08-10T06:46:22.607Z,1002.78
2023-08-10T06:49:15.652Z,1002.84
2023-08-10T06:50:17.462Z,1002.88
2023-08-10T06:51:16.790Z,1002.82
2023-08-10T06:52:16.815Z,1002.87
2023-08-10T06:53:16.862Z,1002.98
2023-08-10T06:54:17.274Z,1002.95
2023-08-10T06:55:16.784Z,1003.04
2023-08-10T06:56:16.796Z,1003.16
2023-08-10T06:57:16.790Z,1003.07
2023-08-10T06:59:20.371Z,1003.14
2023-08-10T07:01:52.945Z,1003.06
2023-08-10T07:03:16.765Z,1003.05
2023-08-10T07:04:16.678Z,1003.01
2023-08-10T07:05:16.654Z,1002.99
2023-08-10T07:06:16.706Z,1003.07
2023-08-10T07:07:16.696Z,1002.93
2023-08-10T07:08:16.704Z,1002.97
2023-08-10T07:09:16.666Z,1002.99
2023-08-10T07:10:16.679Z,1002.99
2023-08-10T07:11:16.665Z,1002.95
2023-08-10T07:12:17.508Z,1002.97
2023-08-10T07:13:16.637Z,1002.98
2023-08-10T07:14:16.623Z,1003.02
2023-08-10T07:15:16.644Z,1003.00
2023-08-10T07:16:17.591Z,1003.00
2023-08-10T07:17:16.593Z,1002.99
2023-08-10T07:18:16.667Z,1002.92
2023-08-10T07:19:16.608Z,1002.89
2023-08-10T07:20:16.568Z,1002.90
2023-08-10T07:21:16.578Z,1002.91
2023-08-10T07:22:16.567Z,1002.81
2023-08-10T07:23:16.584Z,1002.83
2023-08-10T07:24:16.547Z,1002.79
2023-08-10T07:25:16.572Z,1002.81
2023-08-10T07:26:16.563Z,1002.80
2023-08-10T07:27:17.398Z,1002.84
2023-08-10T07:28:16.570Z,1002.80
2023-08-10T07:29:16.557Z,1002.81
2023-08-10T07:30:16.545Z,1002.75
2023-08-10T07:31:16.506Z,1002.76
2023-08-10T07:32:16.504Z,1002.73
2023-08-10T07:33:16.493Z,1002.72
2023-08-10T07:34:16.538Z,1002.75
2023-08-10T07:35:16.543Z,1002.79
2023-08-10T07:36:16.604Z,1002.77
2023-08-10T07:37:16.482Z,1002.77
2023-08-10T07:38:16.447Z,1002.77
2023-08-10T07:39:16.450Z,1002.75
2023-08-10T07:40:16.468Z,1002.80
2023-08-10T07:41:16.471Z,1002.78
2023-08-10T07:42:16.451Z,1002.78
2023-08-10T07:45:26.311Z,1002.84
2023-08-10T07:46:26.315Z,1002.83
2023-08-10T07:47:27.498Z,1002.78
2023-08-10T07:48:27.459Z,1002.87
2023-08-10T07:49:28.169Z,1002.79
2023-08-10T07:50:27.439Z,1002.79
2023-08-10T07:51:27.442Z,1002.81
2023-08-10T07:52:28.169Z,1002.80
2023-08-10T07:53:27.406Z,1002.83
2023-08-10T07:54:27.408Z,1002.87
2023-08-10T07:55:28.147Z,1002.83
2023-08-10T07:56:27.458Z,1002.86
2023-08-10T07:57:27.450Z,1002.84
2023-08-10T07:58:27.471Z,1002.87
2023-08-10T07:59:27.414Z,1002.88
2023-08-10T08:00:27.437Z,1002.82
2023-08-10T08:01:27.454Z,1002.90
2023-08-10T08:02:27.399Z,1002.88
2023-08-10T08:03:27.529Z,1002.88
2023-08-10T08:04:27.431Z,1002.90
2023-08-10T08:05:27.333Z,1002.92
2023-08-10T08:06:27.384Z,1002.95
2023-08-10T08:07:27.356Z,1002.91
2023-08-10T08:08:27.309Z,1003.01
2023-08-10T08:09:27.343Z,1002.97
2023-08-10T08:10:28.257Z,1002.97
2023-08-10T08:11:27.310Z,1002.98
2023-08-10T08:12:27.285Z,1002.94
2023-08-10T08:13:27.391Z,1003.01
2023-08-10T08:14:27.311Z,1002.96
2023-08-10T08:15:27.297Z,1003.02
2023-08-10T08:16:27.357Z,1002.96
2023-08-10T08:17:27.338Z,1002.96
2023-08-10T08:18:27.268Z,1002.91
2023-08-10T08:19:27.262Z,1002.93
2023-08-10T08:20:27.253Z,1002.89
2023-08-10T08:21:27.238Z,1002.94
2023-08-10T08:22:28.044Z,1003.02
2023-08-10T08:23:27.270Z,1002.98
2023-08-10T08:24:27.211Z,1002.96
2023-08-10T08:25:27.222Z,1003.06
2023-08-10T08:26:27.225Z,1003.05
2023-08-10T08:27:27.224Z,1003.02
2023-08-10T08:28:27.193Z,1003.07
2023-08-10T08:29:27.203Z,1002.96
2023-08-10T08:30:27.196Z,1002.98
2023-08-10T08:31:27.246Z,1002.97
2023-08-10T08:32:43.222Z,1002.96
2023-08-10T08:33:29.238Z,1002.95
2023-08-10T08:34:27.173Z,1002.96
2023-08-10T08:35:27.162Z,1002.89
2023-08-10T08:36:27.133Z,1002.87
2023-08-10T08:37:27.117Z,1002.85
2023-08-10T08:38:27.106Z,1002.87
2023-08-10T08:39:27.117Z,1002.88
2023-08-10T08:40:27.173Z,1002.77
2023-08-10T08:41:27.106Z,1002.77
2023-08-10T08:42:27.119Z,1002.79
2023-08-10T08:43:27.115Z,1002.80
2023-08-10T08:44:27.108Z,1002.78
2023-08-10T08:45:27.154Z,1002.85
2023-08-10T08:46:27.255Z,1002.83
2023-08-10T08:47:27.215Z,1002.80
2023-08-10T08:48:27.125Z,1002.72
2023-08-10T08:49:27.060Z,1002.79
2023-08-10T08:50:27.030Z,1002.81
2023-08-10T08:51:27.068Z,1002.79
2023-08-10T08:52:27.178Z,1002.79
2023-08-10T08:53:27.019Z,1002.73
2023-08-10T08:54:26.985Z,1002.76
2023-08-10T08:55:27.140Z,1002.78
2023-08-10T08:56:26.977Z,1002.72
2023-08-10T08:57:27.000Z,1002.76
2023-08-10T08:58:27.033Z,1002.69
2023-08-10T08:59:26.986Z,1002.73
2023-08-10T09:00:27.087Z,1002.73
2023-08-10T09:01:27.108Z,1002.69
2023-08-10T09:02:29.465Z,1002.74
2023-08-10T09:03:27.006Z,1002.72
2023-08-10T09:04:27.058Z,1002.72
2023-08-10T09:05:26.958Z,1002.72
2023-08-10T09:06:26.908Z,1002.68
2023-08-10T09:08:00.706Z,1002.65
2023-08-10T09:08:32.368Z,1002.66
2023-08-10T09:09:29.429Z,1002.69
2023-08-10T09:10:31.390Z,1002.64
2023-08-10T09:11:27.625Z,1002.70
2023-08-10T09:12:26.906Z,1002.62
2023-08-10T09:13:27.858Z,1002.71
2023-08-10T09:14:28.709Z,1002.69
2023-08-10T09:15:27.120Z,1002.69
2023-08-10T09:16:27.253Z,1002.66
2023-08-10T09:17:26.842Z,1002.67
2023-08-10T09:18:27.766Z,1002.67
2023-08-10T09:19:26.950Z,1002.59
2023-08-10T09:20:28.231Z,1002.61
2023-08-10T09:21:26.793Z,1002.57
2023-08-10T09:22:26.806Z,1002.59
2023-08-10T09:23:26.801Z,1002.69
2023-08-10T09:24:27.817Z,1002.68
2023-08-10T09:25:26.796Z,1002.73
2023-08-10T09:26:26.816Z,1002.64
2023-08-10T09:27:26.892Z,1002.68
2023-08-10T09:28:27.033Z,1002.73
2023-08-10T09:29:26.750Z,1002.67
2023-08-10T09:30:26.780Z,1002.77
2023-08-10T09:31:26.893Z,1002.74
2023-08-10T09:32:26.798Z,1002.78
2023-08-10T09:33:26.735Z,1002.78
2023-08-10T09:34:26.972Z,1002.73
2023-08-10T09:35:26.689Z,1002.75
2023-08-10T09:36:26.749Z,1002.71
2023-08-10T09:37:27.331Z,1002.76
2023-08-10T09:38:28.597Z,1002.67
2023-08-10T09:39:26.782Z,1002.68
2023-08-10T09:40:29.255Z,1002.67
2023-08-10T09:41:28.376Z,1002.75
2023-08-10T09:42:26.793Z,1002.81
2023-08-10T09:43:27.271Z,1002.83
2023-08-10T09:44:27.271Z,1002.75
2023-08-10T09:45:27.179Z,1002.81
2023-08-10T09:46:26.627Z,1002.77
2023-08-10T09:47:26.691Z,1002.88
2023-08-10T09:48:26.611Z,1002.88
2023-08-10T09:49:26.662Z,1002.88
2023-08-10T09:50:26.665Z,1002.88
2023-08-10T09:51:26.597Z,1002.86
2023-08-10T09:52:26.635Z,1002.84
2023-08-10T09:53:26.584Z,1002.82
2023-08-10T09:54:31.083Z,1002.79
2023-08-10T09:55:26.586Z,1002.81
2023-08-10T09:56:26.589Z,1002.73
2023-08-10T09:57:26.745Z,1002.72
2023-08-10T09:58:26.540Z,1002.69
2023-08-10T09:59:26.595Z,1002.74
2023-08-10T10:00:26.546Z,1002.73
2023-08-10T10:01:26.565Z,1002.71
2023-08-10T10:02:26.532Z,1002.67
2023-08-10T10:03:27.320Z,1002.73
2023-08-10T10:04:26.635Z,1002.69
2023-08-10T10:05:36.024Z,1002.75
2023-08-10T10:06:28.529Z,1002.69
2023-08-10T10:07:26.511Z,1002.73
2023-08-10T10:08:26.503Z,1002.76
2023-08-10T10:09:27.411Z,1002.74
2023-08-10T10:10:26.565Z,1002.69
2023-08-10T10:11:26.533Z,1002.71
2023-08-10T10:12:27.355Z,1002.59
2023-08-10T10:13:28.244Z,1002.57
2023-08-10T10:14:26.491Z,1002.60
2023-08-10T10:15:28.677Z,1002.68
2023-08-10T10:16:26.454Z,1002.64
2023-08-10T10:17:28.433Z,1002.64
2023-08-10T10:18:26.405Z,1002.62
2023-08-10T10:19:29.402Z,1002.60
2023-08-10T10:20:26.425Z,1002.63
2023-08-10T10:21:26.442Z,1002.60
2023-08-10T10:22:26.413Z,1002.58
2023-08-10T10:23:27.303Z,1002.58
2023-08-10T10:24:26.351Z,1002.63
2023-08-10T10:25:26.414Z,1002.61
2023-08-10T10:26:26.357Z,1002.68
2023-08-10T10:27:26.355Z,1002.66
2023-08-10T10:28:26.602Z,1002.63
2023-08-10T10:29:26.379Z,1002.62
2023-08-10T10:30:26.350Z,1002.68
2023-08-10T10:31:26.424Z,1002.66
2023-08-10T10:32:28.059Z,1002.70
2023-08-10T10:33:26.337Z,1002.62
2023-08-10T10:34:26.308Z,1002.63
2023-08-10T10:35:26.990Z,1002.59
2023-08-10T10:36:26.370Z,1002.49
2023-08-10T10:37:26.315Z,1002.57
2023-08-10T10:38:27.317Z,1002.53
2023-08-10T10:39:26.258Z,1002.57
2023-08-10T10:40:27.186Z,1002.61
2023-08-10T10:41:26.270Z,1002.50
2023-08-10T10:42:26.265Z,1002.51
2023-08-10T10:43:26.212Z,1002.59
2023-08-10T10:44:26.239Z,1002.46
2023-08-10T10:45:26.286Z,1002.47
2023-08-10T10:46:28.050Z,1002.46
2023-08-10T10:47:27.222Z,1002.48
2023-08-10T10:48:26.232Z,1002.46
2023-08-10T10:49:26.228Z,1002.44
2023-08-10T10:50:26.178Z,1002.40
2023-08-10T10:51:26.269Z,1002.36
2023-08-10T10:52:26.287Z,1002.29
2023-08-10T10:53:26.171Z,1002.36
2023-08-10T10:55:00.837Z,1002.33
2023-08-10T10:55:26.191Z,1002.33
2023-08-10T10:56:26.134Z,1002.30
2023-08-10T10:58:00.890Z,1002.25
2023-08-10T10:58:26.167Z,1002.25
2023-08-10T10:59:26.749Z,1002.20
2023-08-10T11:00:26.120Z,1002.29
2023-08-10T11:01:26.207Z,1002.31
2023-08-10T11:02:26.124Z,1002.32
2023-08-10T11:03:26.090Z,1002.26
2023-08-10T11:04:26.911Z,1002.28
2023-08-10T11:05:26.855Z,1002.34
2023-08-10T11:06:28.223Z,1002.32
2023-08-10T11:07:59.342Z,1002.33
2023-08-10T11:08:26.101Z,1002.32
2023-08-10T11:09:26.049Z,1002.32
2023-08-10T11:10:26.026Z,1002.30
2023-08-10T11:11:26.054Z,1002.42
2023-08-10T11:12:27.438Z,1002.37
2023-08-10T11:13:29.862Z,1002.33
2023-08-10T11:14:26.033Z,1002.39
2023-08-10T11:15:28.040Z,1002.36
2023-08-10T11:16:26.152Z,1002.38
2023-08-10T11:17:27.456Z,1002.35
2023-08-10T11:18:33.540Z,1002.40
2023-08-10T11:19:26.000Z,1002.32
2023-08-10T11:20:26.083Z,1002.39
2023-08-10T11:21:26.648Z,1002.38
2023-08-10T11:22:28.875Z,1002.37
2023-08-10T11:23:26.977Z,1002.34
2023-08-10T11:24:32.865Z,1002.35
2023-08-10T11:25:28.266Z,1002.33
2023-08-10T11:26:26.539Z,1002.30
2023-08-10T11:27:25.936Z,1002.30
2023-08-10T11:28:25.914Z,1002.38
2023-08-10T11:29:27.549Z,1002.34
2023-08-10T11:30:25.978Z,1002.34
2023-08-10T11:31:25.966Z,1002.27
2023-08-10T11:32:25.978Z,1002.27
2023-08-10T11:33:26.527Z,1002.29
2023-08-10T11:34:26.060Z,1002.30
2023-08-10T11:35:28.526Z,1002.34
2023-08-10T11:36:25.945Z,1002.31
2023-08-10T11:37:25.896Z,1002.26
2023-08-10T11:38:25.964Z,1002.24
2023-08-10T11:39:25.988Z,1002.26
2023-08-10T11:40:25.939Z,1002.26
2023-08-10T11:41:26.500Z,1002.25
2023-08-10T11:42:26.094Z,1002.18
2023-08-10T11:43:27.512Z,1002.18
2023-08-10T11:44:26.907Z,1002.15
2023-08-10T11:45:25.820Z,1002.10
2023-08-10T11:46:28.598Z,1002.09
2023-08-10T11:47:25.808Z,1002.11
2023-08-10T11:48:25.896Z,1002.06
2023-08-10T11:49:25.793Z,1002.05
2023-08-10T11:50:25.799Z,1002.08
2023-08-10T11:51:26.919Z,1002.09
2023-08-10T11:52:26.724Z,1002.10
2023-08-10T11:53:25.731Z,1002.13
2023-08-10T11:54:25.735Z,1002.14
2023-08-10T11:55:26.619Z,1002.15
2023-08-10T11:56:25.768Z,1002.13
2023-08-10T11:57:25.856Z,1002.19
2023-08-10T11:58:25.770Z,1002.12
2023-08-10T11:59:25.743Z,1002.17
2023-08-10T12:00:25.720Z,1002.20
2023-08-10T12:01:26.496Z,1002.17
2023-08-10T12:02:25.885Z,1002.16
2023-08-10T12:03:33.185Z,1002.17
2023-08-10T12:04:27.774Z,1002.17
2023-08-10T12:05:27.514Z,1002.16
2023-08-10T12:06:25.678Z,1002.13
2023-08-10T12:07:25.656Z,1002.12
2023-08-10T12:08:26.106Z,1002.17
2023-08-10T12:09:25.676Z,1002.07
2023-08-10T12:10:27.487Z,1002.08
2023-08-10T12:11:28.524Z,1002.13
2023-08-10T12:12:26.362Z,1002.08
2023-08-10T12:13:25.609Z,1002.14
2023-08-10T12:14:26.995Z,1002.14
2023-08-10T12:15:25.574Z,1002.12
2023-08-10T12:16:25.699Z,1002.12
2023-08-10T12:17:25.699Z,1002.09
2023-08-10T12:18:26.939Z,1002.12
2023-08-10T12:19:25.568Z,1002.09
2023-08-10T12:20:27.336Z,1002.13
2023-08-10T12:21:26.551Z,1002.07
2023-08-10T12:22:25.562Z,1002.09
2023-08-10T12:23:25.525Z,1002.08
2023-08-10T12:24:25.527Z,1002.07
2023-08-10T12:25:26.646Z,1002.06
2023-08-10T12:26:29.377Z,1002.02
2023-08-10T12:27:25.524Z,1002.12
2023-08-10T12:28:26.491Z,1002.07
2023-08-10T12:29:26.572Z,1002.07
2023-08-10T12:30:25.660Z,1002.08